createdAt,value
2022-09-15T00:00:20.299Z,16.98
2022-09-15T00:00:53.975Z,20.98
2022-09-15T00:01:26.381Z,18.95
2022-09-15T00:01:58.945Z,19.48
2022-09-15T00:02:31.743Z,19.23
2022-09-15T00:03:04.251Z,18.48
2022-09-15T00:03:36.845Z,19.67
2022-09-15T00:04:09.392Z,19.50
2022-09-15T00:04:41.702Z,20.38
2022-09-15T00:05:14.634Z,18.77
2022-09-15T00:05:47.105Z,19.98
2022-09-15T00:06:19.416Z,19.20
2022-09-15T00:06:51.748Z,18.42
2022-09-15T00:07:24.444Z,17.40
2022-09-15T00:07:56.769Z,19.17
2022-09-15T00:08:29.117Z,16.98
2022-09-15T00:09:01.707Z,18.55
2022-09-15T00:09:34.485Z,20.75
2022-09-15T00:10:07.027Z,18.83
2022-09-15T00:10:49.469Z,19.55
2022-09-15T00:11:23.425Z,17.58
2022-09-15T00:11:55.864Z,17.08
2022-09-15T00:12:28.184Z,18.52
2022-09-15T00:13:00.658Z,16.88
2022-09-15T00:13:33.646Z,17.50
2022-09-15T00:14:07.132Z,17.02
2022-09-15T00:14:39.373Z,16.88
2022-09-15T00:15:14.275Z,16.63
2022-09-15T00:15:46.832Z,16.98
2022-09-15T00:16:20.505Z,17.42
2022-09-15T00:16:52.878Z,17.08
2022-09-15T00:17:25.564Z,16.08
2022-09-15T00:17:57.953Z,17.83
2022-09-15T00:18:30.965Z,17.80
2022-09-15T00:19:04.017Z,17.17
2022-09-15T00:19:36.617Z,16.98
2022-09-15T00:20:09.271Z,16.17
2022-09-15T00:20:43.031Z,16.02
2022-09-15T00:21:17.650Z,19.35
2022-09-15T00:21:49.907Z,14.35
2022-09-15T00:22:22.827Z,15.00
2022-09-15T00:22:55.160Z,18.40
2022-09-15T00:23:27.438Z,20.67
2022-09-15T00:24:00.540Z,15.80
2022-09-15T00:24:33.168Z,18.70
2022-09-15T00:25:06.341Z,18.10
2022-09-15T00:25:46.102Z,19.60
2022-09-15T00:26:19.649Z,16.63
2022-09-15T00:26:51.981Z,16.92
2022-09-15T00:27:24.311Z,17.42
2022-09-15T00:27:56.908Z,16.10
2022-09-15T00:28:29.206Z,16.40
2022-09-15T00:29:02.906Z,18.33
2022-09-15T00:29:36.086Z,17.35
2022-09-15T00:30:08.664Z,16.05
2022-09-15T00:30:44.678Z,14.43
2022-09-15T00:31:18.271Z,15.65
2022-09-15T00:31:50.697Z,16.55
2022-09-15T00:32:23.147Z,15.75
2022-09-15T00:32:55.681Z,16.00
2022-09-15T00:33:27.958Z,15.52
2022-09-15T00:34:02.967Z,15.75
2022-09-15T00:34:35.501Z,17.55
2022-09-15T00:35:07.982Z,15.77
2022-09-15T00:35:41.102Z,16.17
2022-09-15T00:36:14.672Z,17.02
2022-09-15T00:36:46.954Z,14.65
2022-09-15T00:37:19.909Z,16.55
2022-09-15T00:37:52.156Z,15.90
2022-09-15T00:38:24.410Z,12.55
2022-09-15T00:38:56.995Z,15.27
2022-09-15T00:39:29.376Z,16.50
2022-09-15T00:40:02.064Z,16.48
2022-09-15T00:40:34.925Z,15.48
2022-09-15T00:41:08.723Z,15.48
2022-09-15T00:41:41.427Z,14.02
2022-09-15T00:42:17.354Z,16.42
2022-09-15T00:42:49.773Z,15.63
2022-09-15T00:43:40.374Z,15.15
2022-09-15T00:44:18.554Z,15.18
2022-09-15T00:44:58.313Z,15.45
2022-09-15T00:45:30.657Z,14.55
2022-09-15T00:46:02.931Z,12.98
2022-09-15T00:46:38.374Z,13.48
2022-09-15T00:47:19.300Z,14.52
2022-09-15T00:47:52.289Z,15.18
2022-09-15T00:48:24.587Z,15.27
2022-09-15T00:48:56.820Z,15.27
2022-09-15T00:49:33.320Z,16.80
2022-09-15T00:50:08.444Z,15.80
2022-09-15T00:50:42.008Z,18.08
2022-09-15T00:51:17.048Z,16.08
2022-09-15T00:52:08.936Z,15.45
2022-09-15T00:52:45.528Z,15.10
2022-09-15T00:53:18.965Z,16.35
2022-09-15T00:53:52.153Z,16.77
2022-09-15T00:54:27.441Z,16.20
2022-09-15T00:55:05.773Z,16.67
2022-09-15T00:55:43.138Z,16.30
2022-09-15T00:56:16.201Z,16.40
2022-09-15T00:56:49.825Z,16.55
2022-09-15T00:57:42.358Z,14.98
2022-09-15T00:58:18.171Z,16.48
2022-09-15T00:58:53.323Z,15.40
2022-09-15T00:59:39.471Z,13.68
2022-09-15T01:00:13.190Z,14.15
2022-09-15T01:00:47.985Z,15.25
2022-09-15T01:01:20.411Z,16.15
2022-09-15T01:01:57.044Z,16.45
2022-09-15T01:02:30.727Z,16.20
2022-09-15T01:03:03.377Z,15.00
2022-09-15T01:03:36.892Z,15.05
2022-09-15T01:04:09.560Z,16.25
2022-09-15T01:04:42.048Z,17.88
2022-09-15T01:05:16.214Z,17.40
2022-09-15T01:05:53.914Z,16.38
2022-09-15T01:06:31.831Z,16.88
2022-09-15T01:07:05.059Z,15.52
2022-09-15T01:07:49.439Z,16.05
2022-09-15T01:08:41.926Z,16.02
2022-09-15T01:09:21.239Z,16.30
2022-09-15T01:09:55.724Z,15.32
2022-09-15T01:10:31.072Z,15.55
2022-09-15T01:11:03.453Z,17.27
2022-09-15T01:11:35.989Z,14.95
2022-09-15T01:12:08.336Z,15.95
2022-09-15T01:12:44.649Z,15.65
2022-09-15T01:13:17.040Z,16.63
2022-09-15T01:13:49.311Z,16.70
2022-09-15T01:14:21.573Z,16.50
2022-09-15T01:14:53.936Z,15.40
2022-09-15T01:15:28.953Z,17.50
2022-09-15T01:17:29.280Z,15.68
2022-09-15T01:18:20.424Z,15.35
2022-09-15T01:19:05.807Z,17.00
2022-09-15T01:19:40.708Z,17.33
2022-09-15T01:20:31.132Z,16.23
2022-09-15T01:21:17.550Z,15.93
2022-09-15T01:21:55.632Z,15.02
2022-09-15T01:22:49.014Z,14.95
2022-09-15T01:23:30.363Z,15.05
2022-09-15T01:24:02.550Z,13.15
2022-09-15T01:24:52.797Z,14.25
2022-09-15T01:25:35.334Z,11.88
2022-09-15T01:26:26.585Z,14.73
2022-09-15T01:27:13.669Z,14.27
2022-09-15T01:28:06.597Z,11.70
2022-09-15T01:28:57.343Z,14.68
2022-09-15T01:29:35.341Z,14.93
2022-09-15T01:30:17.479Z,13.80
2022-09-15T01:31:00.235Z,14.25
2022-09-15T01:31:58.449Z,15.13
2022-09-15T01:33:12.236Z,15.25
2022-09-15T01:34:06.089Z,14.23
2022-09-15T01:34:42.187Z,14.55
2022-09-15T01:35:17.288Z,14.32
2022-09-15T01:35:49.473Z,17.05
2022-09-15T01:36:47.831Z,16.08
2022-09-15T01:37:24.400Z,17.20
2022-09-15T01:38:01.076Z,16.55
2022-09-15T01:38:38.161Z,16.13
2022-09-15T01:39:18.471Z,16.20
2022-09-15T01:39:51.735Z,15.18
2022-09-15T01:40:27.200Z,14.57
2022-09-15T01:41:05.619Z,15.02
2022-09-15T01:41:44.448Z,15.45
2022-09-15T01:42:18.435Z,14.63
2022-09-15T01:42:51.647Z,13.68
2022-09-15T01:43:25.458Z,15.25
2022-09-15T01:44:00.972Z,12.20
2022-09-15T01:44:35.507Z,14.18
2022-09-15T01:45:09.813Z,11.88
2022-09-15T01:45:44.148Z,15.88
2022-09-15T01:46:19.776Z,14.15
2022-09-15T01:46:57.736Z,13.52
2022-09-15T01:47:30.529Z,13.75
2022-09-15T01:48:05.685Z,14.80
2022-09-15T01:48:40.064Z,17.05
2022-09-15T01:49:14.938Z,13.93
2022-09-15T01:50:05.688Z,13.65
2022-09-15T01:50:41.113Z,14.02
2022-09-15T01:51:14.078Z,13.80
2022-09-15T01:51:46.828Z,14.50
2022-09-15T01:52:21.695Z,15.43
2022-09-15T01:52:54.902Z,15.48
2022-09-15T01:53:27.378Z,15.85
2022-09-15T01:54:00.410Z,10.93
2022-09-15T01:54:37.655Z,14.70
2022-09-15T01:55:16.572Z,10.77
2022-09-15T01:55:54.338Z,12.55
2022-09-15T01:56:26.788Z,9.73
2022-09-15T01:56:59.350Z,11.65
2022-09-15T01:57:33.549Z,12.90
2022-09-15T01:58:05.871Z,13.43
2022-09-15T01:58:38.862Z,13.60
2022-09-15T01:59:11.383Z,9.38
2022-09-15T01:59:44.803Z,10.98
2022-09-15T02:00:17.193Z,11.85
2022-09-15T02:00:57.029Z,14.20
2022-09-15T02:01:32.874Z,12.10
2022-09-15T02:02:12.744Z,14.52
2022-09-15T02:02:49.020Z,14.10
2022-09-15T02:03:25.448Z,11.27
2022-09-15T02:04:04.248Z,13.25
2022-09-15T02:04:46.294Z,14.27
2022-09-15T02:05:20.271Z,14.10
2022-09-15T02:06:00.719Z,16.20
2022-09-15T02:06:53.452Z,16.35
2022-09-15T02:07:25.936Z,13.65
2022-09-15T02:08:25.313Z,13.30
2022-09-15T02:09:00.788Z,13.40
2022-09-15T02:09:36.089Z,14.57
2022-09-15T02:10:12.604Z,16.35
2022-09-15T02:11:01.050Z,14.65
2022-09-15T02:11:35.570Z,13.85
2022-09-15T02:12:20.151Z,16.55
2022-09-15T02:13:01.289Z,15.07
2022-09-15T02:13:35.194Z,13.38
2022-09-15T02:14:14.350Z,11.43
2022-09-15T02:14:48.222Z,12.38
2022-09-15T02:15:35.991Z,13.43
2022-09-15T02:16:20.017Z,10.23
2022-09-15T02:16:54.342Z,13.05
2022-09-15T02:17:29.871Z,13.07
2022-09-15T02:18:04.105Z,12.65
2022-09-15T02:18:44.752Z,13.60
2022-09-15T02:19:19.942Z,16.05
2022-09-15T02:20:07.099Z,15.00
2022-09-15T02:21:09.626Z,15.23
2022-09-15T02:21:54.090Z,14.18
2022-09-15T02:22:28.508Z,12.93
2022-09-15T02:23:05.803Z,14.98
2022-09-15T02:23:40.848Z,12.50
2022-09-15T02:24:18.996Z,12.80
2022-09-15T02:24:56.970Z,11.32
2022-09-15T02:25:32.892Z,11.68
2022-09-15T02:26:08.621Z,11.20
2022-09-15T02:26:41.909Z,9.30
2022-09-15T02:27:22.268Z,10.93
2022-09-15T02:27:56.173Z,11.30
2022-09-15T02:28:30.311Z,11.02
2022-09-15T02:29:05.262Z,11.07
2022-09-15T02:29:38.230Z,12.30
2022-09-15T02:30:12.026Z,11.43
2022-09-15T02:30:45.330Z,10.40
2022-09-15T02:31:18.906Z,9.85
2022-09-15T02:31:53.163Z,10.80
2022-09-15T02:32:28.172Z,10.90
2022-09-15T02:33:03.045Z,12.50
2022-09-15T02:33:40.993Z,11.43
2022-09-15T02:34:15.917Z,11.90
2022-09-15T02:34:51.848Z,11.88
2022-09-15T02:35:25.348Z,11.52
2022-09-15T02:35:57.742Z,12.35
2022-09-15T02:36:30.855Z,12.45
2022-09-15T02:37:05.013Z,11.10
2022-09-15T02:37:37.689Z,11.40
2022-09-15T02:38:11.170Z,10.45
2022-09-15T02:38:46.621Z,10.23
2022-09-15T02:39:20.685Z,9.25
2022-09-15T02:39:58.210Z,10.07
2022-09-15T02:40:31.670Z,9.05
2022-09-15T02:41:05.634Z,9.15
2022-09-15T02:41:38.061Z,9.63
2022-09-15T02:42:10.747Z,7.80
2022-09-15T02:42:51.967Z,8.38
2022-09-15T02:43:24.336Z,7.80
2022-09-15T02:43:56.708Z,8.27
2022-09-15T02:44:30.930Z,9.60
2022-09-15T02:45:03.878Z,9.57
2022-09-15T02:45:36.404Z,9.00
2022-09-15T02:46:08.860Z,9.52
2022-09-15T02:46:41.675Z,9.48
2022-09-15T02:47:14.088Z,9.88
2022-09-15T02:47:46.388Z,7.82
2022-09-15T02:48:19.046Z,8.70
2022-09-15T02:48:51.327Z,9.93
2022-09-15T02:49:23.785Z,7.30
2022-09-15T02:49:57.248Z,8.07
2022-09-15T02:50:29.929Z,8.45
2022-09-15T02:51:02.244Z,7.05
2022-09-15T02:51:34.605Z,7.00
2022-09-15T02:52:07.619Z,7.93
2022-09-15T02:52:39.917Z,7.20
2022-09-15T02:53:12.356Z,7.28
2022-09-15T02:53:45.758Z,7.57
2022-09-15T02:54:18.225Z,7.90
2022-09-15T02:54:50.657Z,7.28
2022-09-15T02:55:23.588Z,7.55
2022-09-15T02:55:56.601Z,6.68
2022-09-15T02:56:28.956Z,8.95
2022-09-15T02:57:01.270Z,8.82
2022-09-15T02:57:33.576Z,7.97
2022-09-15T02:58:06.070Z,8.27
2022-09-15T02:58:38.339Z,8.07
2022-09-15T02:59:10.640Z,9.63
2022-09-15T03:00:01.830Z,9.40
2022-09-15T03:00:34.577Z,8.25
2022-09-15T03:01:07.874Z,8.27
2022-09-15T03:01:41.057Z,9.75
2022-09-15T03:02:14.015Z,11.43
2022-09-15T03:02:48.451Z,9.30
2022-09-15T03:03:22.373Z,9.07
2022-09-15T03:03:55.078Z,8.88
2022-09-15T03:04:27.451Z,9.38
2022-09-15T03:04:59.742Z,7.97
2022-09-15T03:05:32.051Z,8.95
2022-09-15T03:06:16.668Z,9.02
2022-09-15T03:06:49.973Z,7.78
2022-09-15T03:07:22.306Z,8.45
2022-09-15T03:07:54.905Z,9.30
2022-09-15T03:08:28.788Z,8.90
2022-09-15T03:09:03.098Z,8.68
2022-09-15T03:09:35.356Z,8.60
2022-09-15T03:10:08.277Z,8.80
2022-09-15T03:10:40.565Z,9.52
2022-09-15T03:11:13.014Z,7.88
2022-09-15T03:11:45.463Z,8.82
2022-09-15T03:12:18.003Z,8.93
2022-09-15T03:12:51.376Z,7.95
2022-09-15T03:13:23.706Z,8.82
2022-09-15T03:13:57.380Z,8.65
2022-09-15T03:14:32.808Z,10.38
2022-09-15T03:15:05.627Z,9.02
2022-09-15T03:15:37.929Z,9.50
2022-09-15T03:16:11.268Z,11.00
2022-09-15T03:16:43.659Z,10.55
2022-09-15T03:17:16.278Z,10.32
2022-09-15T03:17:48.827Z,10.30
2022-09-15T03:18:21.095Z,9.07
2022-09-15T03:18:57.077Z,8.32
2022-09-15T03:19:29.816Z,9.52
2022-09-15T03:20:02.608Z,7.97
2022-09-15T03:20:35.247Z,8.38
2022-09-15T03:21:11.697Z,8.18
2022-09-15T03:21:44.134Z,9.75
2022-09-15T03:22:16.544Z,9.38
2022-09-15T03:22:49.752Z,8.30
2022-09-15T03:23:22.077Z,9.70
2022-09-15T03:23:54.748Z,9.65
2022-09-15T03:24:27.048Z,9.88
2022-09-15T03:24:59.506Z,9.90
2022-09-15T03:25:32.337Z,8.82
2022-09-15T03:26:04.963Z,8.32
2022-09-15T03:26:37.240Z,9.07
2022-09-15T03:27:09.569Z,9.55
2022-09-15T03:27:42.625Z,9.70
2022-09-15T03:28:14.940Z,9.68
2022-09-15T03:28:47.398Z,10.57
2022-09-15T03:29:19.760Z,11.63
2022-09-15T03:29:52.048Z,12.40
2022-09-15T03:30:24.345Z,12.90
2022-09-15T03:30:57.127Z,13.60
2022-09-15T03:31:29.382Z,13.00
2022-09-15T03:32:02.102Z,12.63
2022-09-15T03:32:34.626Z,11.25
2022-09-15T03:33:06.993Z,11.40
2022-09-15T03:33:39.560Z,13.27
2022-09-15T03:34:11.954Z,12.57
2022-09-15T03:34:44.257Z,11.65
2022-09-15T03:35:16.614Z,12.23
2022-09-15T03:35:49.556Z,12.10
2022-09-15T03:36:21.872Z,12.80
2022-09-15T03:36:54.144Z,11.10
2022-09-15T03:37:26.668Z,7.68
2022-09-15T03:37:58.915Z,8.52
2022-09-15T03:38:31.192Z,7.90
2022-09-15T03:39:03.568Z,7.55
2022-09-15T03:39:35.782Z,8.60
2022-09-15T03:40:08.691Z,9.10
2022-09-15T03:40:43.361Z,9.15
2022-09-15T03:41:15.816Z,7.47
2022-09-15T03:41:48.158Z,8.63
2022-09-15T03:42:20.989Z,8.90
2022-09-15T03:42:53.246Z,8.55
2022-09-15T03:43:26.063Z,10.57
2022-09-15T03:43:58.396Z,8.40
2022-09-15T03:44:30.761Z,9.85
2022-09-15T03:45:03.985Z,8.43
2022-09-15T03:45:38.079Z,7.88
2022-09-15T03:46:11.851Z,7.60
2022-09-15T03:46:44.177Z,8.40
2022-09-15T03:47:16.621Z,9.20
2022-09-15T03:47:49.088Z,8.88
2022-09-15T03:48:21.357Z,8.13
2022-09-15T03:48:53.627Z,7.93
2022-09-15T03:49:25.899Z,6.43
2022-09-15T03:49:58.519Z,7.65
2022-09-15T03:50:31.015Z,7.93
2022-09-15T03:51:04.310Z,7.90
2022-09-15T03:51:36.770Z,9.63
2022-09-15T03:52:09.104Z,8.70
2022-09-15T03:52:41.445Z,7.80
2022-09-15T03:53:13.701Z,7.57
2022-09-15T03:53:45.979Z,7.50
2022-09-15T03:54:18.323Z,8.63
2022-09-15T03:54:50.628Z,8.30
2022-09-15T03:55:22.972Z,8.00
2022-09-15T03:55:55.243Z,7.80
2022-09-15T03:56:28.671Z,7.35
2022-09-15T03:57:01.171Z,6.57
2022-09-15T03:57:33.828Z,7.38
2022-09-15T03:58:07.052Z,6.32
2022-09-15T03:58:39.379Z,7.00
2022-09-15T03:59:11.713Z,5.18
2022-09-15T03:59:44.059Z,5.63
2022-09-15T04:00:16.415Z,5.68
2022-09-15T04:00:48.964Z,5.70
2022-09-15T04:01:21.928Z,4.93
2022-09-15T04:01:54.359Z,4.97
2022-09-15T04:02:27.095Z,4.70
2022-09-15T04:02:59.643Z,5.85
2022-09-15T04:03:31.984Z,5.88
2022-09-15T04:04:04.260Z,5.68
2022-09-15T04:04:36.992Z,5.20
2022-09-15T04:05:09.568Z,4.97
2022-09-15T04:05:42.344Z,5.75
2022-09-15T04:06:15.385Z,5.72
2022-09-15T04:06:47.679Z,4.85
2022-09-15T04:07:20.283Z,4.93
2022-09-15T04:07:55.588Z,5.15
2022-09-15T04:08:28.012Z,4.63
2022-09-15T04:09:00.391Z,5.15
2022-09-15T04:09:32.838Z,5.28
2022-09-15T04:10:05.718Z,5.20
2022-09-15T04:10:38.523Z,5.30
2022-09-15T04:11:11.798Z,6.45
2022-09-15T04:11:44.110Z,6.30
2022-09-15T04:12:16.618Z,6.63
2022-09-15T04:12:48.956Z,7.07
2022-09-15T04:13:24.428Z,5.75
2022-09-15T04:13:59.243Z,5.97
2022-09-15T04:14:31.633Z,7.47
2022-09-15T04:15:04.525Z,6.25
2022-09-15T04:15:36.836Z,6.60
2022-09-15T04:16:11.020Z,5.97
2022-09-15T04:16:43.784Z,6.20
2022-09-15T04:17:16.681Z,6.30
2022-09-15T04:17:49.189Z,5.45
2022-09-15T04:18:21.425Z,6.20
2022-09-15T04:18:54.550Z,6.05
2022-09-15T04:19:26.900Z,6.22
2022-09-15T04:19:59.341Z,5.32
2022-09-15T04:20:31.853Z,5.95
2022-09-15T04:21:06.144Z,6.65
2022-09-15T04:21:38.524Z,6.20
2022-09-15T04:22:14.267Z,5.72
2022-09-15T04:22:49.538Z,5.93
2022-09-15T04:23:21.781Z,5.88
2022-09-15T04:23:54.473Z,5.55
2022-09-15T04:24:26.911Z,6.45
2022-09-15T04:24:59.313Z,6.20
2022-09-15T04:25:31.649Z,6.68
2022-09-15T04:26:05.314Z,7.35
2022-09-15T04:26:37.689Z,6.32
2022-09-15T04:27:10.222Z,6.15
2022-09-15T04:27:42.753Z,5.45
2022-09-15T04:28:15.068Z,6.07
2022-09-15T04:28:47.785Z,5.50
2022-09-15T04:29:20.077Z,6.65
2022-09-15T04:29:52.631Z,5.90
2022-09-15T04:30:24.987Z,6.07
2022-09-15T04:31:07.674Z,6.47
2022-09-15T04:31:40.224Z,5.82
2022-09-15T04:32:12.515Z,6.60
2022-09-15T04:32:44.831Z,6.22
2022-09-15T04:33:17.246Z,6.40
2022-09-15T04:33:52.085Z,5.88
2022-09-15T04:34:25.080Z,6.72
2022-09-15T04:34:57.513Z,6.55
2022-09-15T04:35:29.744Z,6.53
2022-09-15T04:36:02.618Z,5.95
2022-09-15T04:36:35.000Z,6.53
2022-09-15T04:37:07.780Z,6.03
2022-09-15T04:37:40.449Z,5.38
2022-09-15T04:38:12.841Z,5.40
2022-09-15T04:38:45.625Z,6.40
2022-09-15T04:39:18.133Z,5.85
2022-09-15T04:39:51.042Z,6.10
2022-09-15T04:40:23.413Z,6.32
2022-09-15T04:40:55.932Z,6.07
2022-09-15T04:41:28.537Z,5.78
2022-09-15T04:42:01.288Z,6.50
2022-09-15T04:42:33.582Z,6.00
2022-09-15T04:43:06.820Z,6.40
2022-09-15T04:43:39.298Z,5.53
2022-09-15T04:44:11.915Z,5.95
2022-09-15T04:44:44.264Z,6.07
2022-09-15T04:45:16.584Z,5.70
2022-09-15T04:45:49.047Z,6.53
2022-09-15T04:46:21.362Z,5.78
2022-09-15T04:46:53.882Z,6.00
2022-09-15T04:47:26.296Z,5.68
2022-09-15T04:47:58.756Z,5.18
2022-09-15T04:48:31.749Z,4.28
2022-09-15T04:49:04.068Z,5.05
2022-09-15T04:49:36.358Z,4.30
2022-09-15T04:50:08.889Z,4.85
2022-09-15T04:50:41.342Z,5.35
2022-09-15T04:51:15.522Z,5.03
2022-09-15T04:51:47.772Z,5.82
2022-09-15T04:52:20.219Z,5.60
2022-09-15T04:52:52.957Z,5.47
2022-09-15T04:53:25.349Z,5.57
2022-09-15T04:53:58.052Z,5.75
2022-09-15T04:54:30.395Z,6.47
2022-09-15T04:55:02.756Z,7.07
2022-09-15T04:55:35.405Z,6.00
2022-09-15T04:56:15.770Z,6.13
2022-09-15T04:56:49.078Z,5.65
2022-09-15T04:57:21.564Z,6.07
2022-09-15T04:57:55.466Z,6.53
2022-09-15T04:58:27.934Z,6.40
2022-09-15T04:59:03.876Z,7.15
2022-09-15T04:59:36.865Z,6.15
2022-09-15T05:00:09.557Z,6.30
2022-09-15T05:00:45.473Z,6.55
2022-09-15T05:01:19.259Z,5.85
2022-09-15T05:01:53.723Z,5.53
2022-09-15T05:02:26.195Z,6.43
2022-09-15T05:02:58.781Z,6.35
2022-09-15T05:03:31.099Z,6.40
2022-09-15T05:04:04.703Z,5.90
2022-09-15T05:04:36.970Z,5.80
2022-09-15T05:05:09.556Z,6.53
2022-09-15T05:05:41.886Z,5.70
2022-09-15T05:06:15.840Z,5.55
2022-09-15T05:06:48.186Z,5.82
2022-09-15T05:07:20.898Z,6.22
2022-09-15T05:07:53.370Z,6.28
2022-09-15T05:08:25.605Z,5.53
2022-09-15T05:08:58.232Z,6.13
2022-09-15T05:09:31.458Z,6.18
2022-09-15T05:10:03.998Z,5.32
2022-09-15T05:10:37.588Z,5.22
2022-09-15T05:11:11.375Z,6.45
2022-09-15T05:11:43.722Z,6.35
2022-09-15T05:12:16.014Z,5.90
2022-09-15T05:12:48.339Z,6.05
2022-09-15T05:13:20.645Z,6.07
2022-09-15T05:13:53.157Z,5.88
2022-09-15T05:14:25.531Z,6.20
2022-09-15T05:14:57.858Z,6.30
2022-09-15T05:15:30.368Z,5.82
2022-09-15T05:16:09.904Z,6.20
2022-09-15T05:16:42.442Z,5.93
2022-09-15T05:17:15.307Z,4.97
2022-09-15T05:17:47.710Z,5.40
2022-09-15T05:18:20.066Z,4.68
2022-09-15T05:18:53.778Z,4.28
2022-09-15T05:19:26.156Z,4.90
2022-09-15T05:19:59.065Z,5.28
2022-09-15T05:20:31.357Z,5.00
2022-09-15T05:21:04.416Z,4.80
2022-09-15T05:21:36.737Z,4.95
2022-09-15T05:22:08.999Z,4.10
2022-09-15T05:22:42.063Z,4.68
2022-09-15T05:23:14.660Z,4.70
2022-09-15T05:23:47.253Z,4.53
2022-09-15T05:24:19.522Z,4.57
2022-09-15T05:24:52.212Z,4.57
2022-09-15T05:25:25.610Z,4.72
2022-09-15T05:25:59.076Z,4.78
2022-09-15T05:26:31.938Z,4.78
2022-09-15T05:27:04.306Z,5.30
2022-09-15T05:27:36.701Z,5.45
2022-09-15T05:28:09.006Z,5.30
2022-09-15T05:28:41.473Z,5.15
2022-09-15T05:29:14.557Z,4.95
2022-09-15T05:29:47.221Z,5.20
2022-09-15T05:31:13.606Z,5.20
2022-09-15T05:31:46.103Z,4.32
2022-09-15T05:32:18.448Z,4.60
2022-09-15T05:32:50.712Z,4.70
2022-09-15T05:33:23.582Z,4.50
2022-09-15T05:33:56.351Z,6.15
2022-09-15T05:34:28.653Z,4.78
2022-09-15T05:35:01.292Z,4.93
2022-09-15T05:35:33.617Z,4.72
2022-09-15T05:36:07.327Z,4.70
2022-09-15T05:36:40.168Z,4.68
2022-09-15T05:37:12.543Z,4.53
2022-09-15T05:37:44.963Z,4.63
2022-09-15T05:38:17.240Z,4.20
2022-09-15T05:38:49.583Z,4.40
2022-09-15T05:39:22.091Z,3.85
2022-09-15T05:39:54.466Z,4.25
2022-09-15T05:40:27.122Z,4.05
2022-09-15T05:41:04.128Z,4.53
2022-09-15T05:41:36.385Z,4.85
2022-09-15T05:42:09.318Z,5.22
2022-09-15T05:42:41.607Z,4.57
2022-09-15T05:43:14.267Z,4.75
2022-09-15T05:43:47.247Z,4.70
2022-09-15T05:44:21.542Z,4.60
2022-09-15T05:44:53.841Z,4.85
2022-09-15T05:45:26.208Z,5.00
2022-09-15T05:45:58.450Z,4.97
2022-09-15T05:46:31.268Z,4.80
2022-09-15T05:47:03.673Z,5.30
2022-09-15T05:47:35.943Z,5.10
2022-09-15T05:48:09.718Z,5.30
2022-09-15T05:48:42.699Z,4.70
2022-09-15T05:49:15.122Z,4.70
2022-09-15T05:49:47.651Z,5.57
2022-09-15T05:50:19.918Z,4.97
2022-09-15T05:50:53.281Z,5.75
2022-09-15T05:51:25.646Z,5.82
2022-09-15T05:51:58.043Z,6.55
2022-09-15T05:52:30.492Z,6.93
2022-09-15T05:53:03.143Z,5.95
2022-09-15T05:53:35.820Z,5.80
2022-09-15T05:54:08.301Z,5.28
2022-09-15T05:54:40.601Z,5.78
2022-09-15T05:55:12.873Z,5.18
2022-09-15T05:55:45.194Z,5.03
2022-09-15T05:56:17.645Z,4.70
2022-09-15T05:56:50.072Z,5.43
2022-09-15T05:57:22.388Z,5.18
2022-09-15T05:57:54.755Z,5.65
2022-09-15T05:58:27.816Z,5.10
2022-09-15T05:59:00.230Z,5.70
2022-09-15T05:59:33.591Z,5.63
2022-09-15T06:00:06.310Z,5.00
2022-09-15T06:00:44.188Z,5.30
2022-09-15T06:01:23.429Z,5.43
2022-09-15T06:01:55.855Z,4.78
2022-09-15T06:02:28.266Z,5.03
2022-09-15T06:03:00.763Z,4.93
2022-09-15T06:03:33.390Z,5.20
2022-09-15T06:04:06.636Z,5.32
2022-09-15T06:04:39.378Z,5.25
2022-09-15T06:05:12.062Z,5.15
2022-09-15T06:05:44.351Z,5.30
2022-09-15T06:06:16.747Z,5.30
2022-09-15T06:06:48.976Z,4.95
2022-09-15T06:07:21.248Z,5.32
2022-09-15T06:07:54.932Z,5.10
2022-09-15T06:08:30.683Z,5.05
2022-09-15T06:09:05.523Z,5.13
2022-09-15T06:09:38.239Z,5.40
2022-09-15T06:10:10.876Z,4.93
2022-09-15T06:10:43.437Z,4.63
2022-09-15T06:11:16.994Z,5.38
2022-09-15T06:11:49.319Z,4.88
2022-09-15T06:12:22.150Z,4.25
2022-09-15T06:12:54.860Z,4.68
2022-09-15T06:13:27.261Z,4.60
2022-09-15T06:14:00.748Z,4.43
2022-09-15T06:14:33.136Z,4.72
2022-09-15T06:15:05.688Z,5.03
2022-09-15T06:15:37.952Z,4.28
2022-09-15T06:16:14.532Z,5.05
2022-09-15T06:16:46.851Z,4.60
2022-09-15T06:17:19.462Z,4.47
2022-09-15T06:17:52.053Z,4.38
2022-09-15T06:18:24.309Z,5.65
2022-09-15T06:18:58.914Z,5.10
2022-09-15T06:19:31.305Z,4.47
2022-09-15T06:20:05.631Z,4.70
2022-09-15T06:20:38.653Z,4.55
2022-09-15T06:21:10.936Z,4.22
2022-09-15T06:21:43.229Z,4.20
2022-09-15T06:22:15.668Z,4.57
2022-09-15T06:22:48.190Z,4.97
2022-09-15T06:23:20.461Z,4.88
2022-09-15T06:23:59.771Z,4.82
2022-09-15T06:24:32.182Z,4.47
2022-09-15T06:25:05.289Z,4.13
2022-09-15T06:25:37.832Z,4.13
2022-09-15T06:26:14.364Z,4.75
2022-09-15T06:26:46.646Z,4.32
2022-09-15T06:27:20.762Z,4.75
2022-09-15T06:27:52.993Z,4.30
2022-09-15T06:28:25.267Z,4.55
2022-09-15T06:28:58.594Z,4.63
2022-09-15T06:29:32.683Z,4.55
2022-09-15T06:30:05.157Z,5.10
2022-09-15T06:30:39.274Z,4.60
2022-09-15T06:31:12.532Z,4.60
2022-09-15T06:31:44.912Z,4.22
2022-09-15T06:32:17.510Z,4.55
2022-09-15T06:32:49.814Z,3.95
2022-09-15T06:33:22.075Z,4.28
2022-09-15T06:33:56.070Z,3.67
2022-09-15T06:35:28.781Z,4.20
2022-09-15T06:36:02.735Z,4.10
2022-09-15T06:36:36.616Z,4.30
2022-09-15T06:37:09.227Z,4.15
2022-09-15T06:37:41.705Z,4.43
2022-09-15T06:38:13.990Z,4.25
2022-09-15T06:38:46.764Z,4.00
2022-09-15T06:39:19.466Z,4.40
2022-09-15T06:39:51.800Z,4.00
2022-09-15T06:40:24.593Z,3.70
2022-09-15T06:40:57.989Z,3.85
2022-09-15T06:41:52.506Z,3.83
2022-09-15T06:42:23.622Z,3.97
2022-09-15T06:42:56.771Z,4.28
2022-09-15T06:43:30.484Z,4.13
2022-09-15T06:44:02.919Z,4.47
2022-09-15T06:44:38.713Z,4.15
2022-09-15T06:45:11.093Z,3.83
2022-09-15T06:45:43.683Z,4.32
2022-09-15T06:46:17.823Z,4.07
2022-09-15T06:46:50.459Z,3.92
2022-09-15T06:47:22.716Z,4.18
2022-09-15T06:48:13.642Z,3.92
2022-09-15T06:48:48.573Z,4.55
2022-09-15T06:49:22.303Z,3.70
2022-09-15T06:49:56.152Z,4.20
2022-09-15T06:50:29.025Z,4.05
2022-09-15T06:51:01.745Z,4.28
2022-09-15T06:51:35.830Z,4.00
2022-09-15T06:52:08.196Z,4.22
2022-09-15T06:52:40.429Z,4.45
2022-09-15T06:53:12.899Z,4.03
2022-09-15T06:53:45.765Z,3.97
2022-09-15T06:54:18.236Z,3.67
2022-09-15T06:54:50.549Z,3.80
2022-09-15T06:55:25.029Z,3.95
2022-09-15T06:56:06.962Z,3.80
2022-09-15T06:56:39.277Z,3.67
2022-09-15T06:57:11.597Z,3.47
2022-09-15T06:57:43.848Z,3.92
2022-09-15T06:58:16.413Z,3.50
2022-09-15T06:58:51.972Z,4.13
2022-09-15T06:59:24.895Z,4.05
2022-09-15T06:59:57.364Z,4.28
2022-09-15T07:00:29.848Z,3.92
2022-09-15T07:01:03.825Z,3.72
2022-09-15T07:01:36.324Z,4.00
2022-09-15T07:02:09.653Z,3.75
2022-09-15T07:02:42.044Z,3.88
2022-09-15T07:03:14.431Z,3.63
2022-09-15T07:03:47.048Z,4.28
2022-09-15T07:04:20.132Z,4.40
2022-09-15T07:04:52.397Z,4.03
2022-09-15T07:05:25.677Z,3.80
2022-09-15T07:05:58.489Z,3.80
2022-09-15T07:06:31.608Z,4.20
2022-09-15T07:07:04.075Z,3.53
2022-09-15T07:07:36.368Z,3.95
2022-09-15T07:08:08.623Z,4.05
2022-09-15T07:08:41.888Z,3.72
2022-09-15T07:09:14.438Z,3.65
2022-09-15T07:09:49.039Z,3.65
2022-09-15T07:10:21.614Z,4.63
2022-09-15T07:10:55.216Z,3.75
2022-09-15T07:11:27.532Z,3.97
2022-09-15T07:11:59.987Z,4.20
2022-09-15T07:12:32.737Z,3.83
2022-09-15T07:13:05.159Z,3.95
2022-09-15T07:13:37.604Z,4.00
2022-09-15T07:14:11.176Z,3.75
2022-09-15T07:14:43.998Z,3.38
2022-09-15T07:15:16.301Z,3.80
2022-09-15T07:15:55.684Z,4.32
2022-09-15T07:16:28.231Z,3.92
2022-09-15T07:17:00.556Z,3.65
2022-09-15T07:17:32.899Z,3.70
2022-09-15T07:18:05.548Z,3.50
2022-09-15T07:18:42.821Z,3.80
2022-09-15T07:19:15.822Z,3.67
2022-09-15T07:19:48.071Z,3.72
2022-09-15T07:20:20.366Z,3.58
2022-09-15T07:20:52.731Z,3.80
2022-09-15T07:21:25.039Z,3.72
2022-09-15T07:21:57.362Z,3.63
2022-09-15T07:22:29.698Z,3.45
2022-09-15T07:23:02.378Z,3.85
2022-09-15T07:23:35.533Z,3.42
2022-09-15T07:24:08.002Z,4.00
2022-09-15T07:24:40.318Z,3.65
2022-09-15T07:25:12.620Z,3.15
2022-09-15T07:25:45.420Z,3.45
2022-09-15T07:26:21.698Z,3.53
2022-09-15T07:26:53.959Z,3.38
2022-09-15T07:27:31.671Z,3.80
2022-09-15T07:28:04.184Z,3.35
2022-09-15T07:28:36.992Z,3.47
2022-09-15T07:29:09.923Z,3.60
2022-09-15T07:29:42.628Z,3.60
2022-09-15T07:30:14.957Z,3.97
2022-09-15T07:30:50.672Z,3.88
2022-09-15T07:31:24.033Z,3.55
2022-09-15T07:31:56.396Z,3.25
2022-09-15T07:32:29.271Z,3.85
2022-09-15T07:33:01.552Z,3.35
2022-09-15T07:33:34.470Z,3.40